Current Weather

Resistencia

Resistencia, Argentina (SARE)

Report from: Sunday, May 22, 2022 3:00 AM -03
Current time: Sunday, May 22, 2022 4:00 AM -03

Nearby weather
Weather history
Weather forecast

Present weatherMist
Temperature8.0°C (46.4°F)
Dew point7.0°C (44.6°F)
Winds 2 kts (1 m/s, 2.3 mph) North-Northeast (30°)
Visibility2.2 mi. (3.5 km)
Altimeter30.12 in.Hg (1020 mB)
Relative humidity93 %
Density altitude-926 ft. (-282 m)
Flight conditions Instrument Meteorological Conditions
Raw dataSARE 220600Z 03002KT 3500 BR NSC 08/07 Q1020 RMK PP///
An error has occurred. This application may no longer respond until reloaded. Reload 🗙